Portada
METAR-TAF:

METAR-TAF

Aeroports :

Barquisimeto, Veneçuela

latitud: 10-04N, longitud: 069-19W, altitud: 613 m

Observació

L'informe es va fer fa 15 minuts, a les 02:02 UTC
Vent 7 kt del Est
Temperatura 28°C
Humitat 74%
Pressió 1016 hPa

METAR: SVBM 130202Z AUTO 10007KT NCD 28/23 Q1016

Hora: 22:17 (02:17 UTC)

Pronòstic

L'informe es va fer fa 7 hores i 33 minuts, a les 18:44 UTC
Pronòstic vàlid del 11 a les 00 UTC al 12 a les 00 UTC
Vent 10 kt del Est/Sud-Est
Visibilitat: 6000 m
Escasses núvols a una alçada de 1300 ft, Cumulonimbus.
Cel ennuvolat a una alçada de 7000 ft
tempesta, pluja
Evolucionant progressivament
l' 11 a les 09 UTC al 11 a les 13 UTC
Vent 4 kt del Est
Visibilitat: 4000 m
Cel ennuvolat a una alçada de 1300 ft, Cumulonimbus.

TAF: SVBM 101844Z 1100/1200 11010KT 6000 TSRA FEW013CB BKN070 TX31/1118Z TN22/1208Z BECMG 1109/1113 09004KT 4000 BRDZ BKN013CB

Observacions i pronòstics meteorològics de més de 4000 aeroports (METAR i TAF).

Les estacions disponibles són els punts grocs i vermells al mapa.

Posi el ratolí al punt desitjat per veure el nom de l'estació.

Feu clic per veure les observacions i els pronòstics meteorològics.

Per canviar el mapa: feu clic els botons verds amb una creu de color negre per apropar; al botó verd amb un guió per allunyar la imatge; o en les fletxes verdes per a mapes adjacents.


METAR-TAF: